sensor_id;sensor_type;location;lat;lon;timestamp;P1;durP1;ratioP1;P2;durP2;ratioP2
16973;SDS011;8603;46.944;7.412;2024-01-30T00:01:15;7.03;;;4.90;;
16973;SDS011;8603;46.944;7.412;2024-01-30T00:03:40;8.17;;;5.37;;
16973;SDS011;8603;46.944;7.412;2024-01-30T00:06:06;7.27;;;5.23;;
16973;SDS011;8603;46.944;7.412;2024-01-30T00:08:33;9.30;;;5.53;;
16973;SDS011;8603;46.944;7.412;2024-01-30T00:10:58;8.30;;;5.47;;
16973;SDS011;8603;46.944;7.412;2024-01-30T00:13:24;7.97;;;5.60;;
16973;SDS011;8603;46.944;7.412;2024-01-30T00:15:50;6.83;;;5.53;;
16973;SDS011;8603;46.944;7.412;2024-01-30T00:18:15;7.60;;;5.37;;
16973;SDS011;8603;46.944;7.412;2024-01-30T00:20:41;8.10;;;5.47;;
16973;SDS011;8603;46.944;7.412;2024-01-30T00:23:07;7.83;;;5.87;;
16973;SDS011;8603;46.944;7.412;2024-01-30T00:25:33;8.23;;;5.30;;
16973;SDS011;8603;46.944;7.412;2024-01-30T00:27:59;8.47;;;6.07;;
16973;SDS011;8603;46.944;7.412;2024-01-30T00:30:25;6.43;;;4.73;;
16973;SDS011;8603;46.944;7.412;2024-01-30T00:32:50;7.53;;;5.47;;
16973;SDS011;8603;46.944;7.412;2024-01-30T00:35:16;9.43;;;5.87;;
16973;SDS011;8603;46.944;7.412;2024-01-30T00:37:42;9.70;;;5.53;;
16973;SDS011;8603;46.944;7.412;2024-01-30T00:40:08;6.53;;;5.30;;
16973;SDS011;8603;46.944;7.412;2024-01-30T00:42:40;7.97;;;4.70;;
16973;SDS011;8603;46.944;7.412;2024-01-30T00:45:11;8.03;;;5.33;;
16973;SDS011;8603;46.944;7.412;2024-01-30T00:47:40;7.83;;;5.20;;
16973;SDS011;8603;46.944;7.412;2024-01-30T00:50:06;6.73;;;5.30;;
16973;SDS011;8603;46.944;7.412;2024-01-30T00:52:32;6.33;;;5.10;;
16973;SDS011;8603;46.944;7.412;2024-01-30T00:54:58;6.73;;;4.93;;
16973;SDS011;8603;46.944;7.412;2024-01-30T00:57:24;8.50;;;5.23;;
16973;SDS011;8603;46.944;7.412;2024-01-30T00:59:50;6.50;;;4.57;;
16973;SDS011;8603;46.944;7.412;2024-01-30T01:02:16;8.50;;;5.03;;
16973;SDS011;8603;46.944;7.412;2024-01-30T01:04:42;7.83;;;5.23;;
16973;SDS011;8603;46.944;7.412;2024-01-30T01:07:09;8.13;;;5.17;;
16973;SDS011;8603;46.944;7.412;2024-01-30T01:09:35;6.57;;;5.40;;
16973;SDS011;8603;46.944;7.412;2024-01-30T01:12:01;7.63;;;5.37;;
16973;SDS011;8603;46.944;7.412;2024-01-30T01:14:27;8.00;;;5.57;;
16973;SDS011;8603;46.944;7.412;2024-01-30T01:16:53;7.70;;;5.33;;
16973;SDS011;8603;46.944;7.412;2024-01-30T01:19:21;9.00;;;5.43;;
16973;SDS011;8603;46.944;7.412;2024-01-30T01:21:47;7.27;;;5.53;;
16973;SDS011;8603;46.944;7.412;2024-01-30T01:24:12;6.87;;;5.20;;
16973;SDS011;8603;46.944;7.412;2024-01-30T01:26:38;9.00;;;5.50;;
16973;SDS011;8603;46.944;7.412;2024-01-30T01:29:04;7.00;;;5.20;;
16973;SDS011;8603;46.944;7.412;2024-01-30T01:31:35;6.97;;;5.50;;
16973;SDS011;8603;46.944;7.412;2024-01-30T01:34:05;9.00;;;5.67;;
16973;SDS011;8603;46.944;7.412;2024-01-30T01:36:31;8.33;;;5.10;;
16973;SDS011;8603;46.944;7.412;2024-01-30T01:38:58;7.60;;;5.07;;
16973;SDS011;8603;46.944;7.412;2024-01-30T01:41:24;7.73;;;5.47;;
16973;SDS011;8603;46.944;7.412;2024-01-30T01:43:50;7.07;;;5.07;;
16973;SDS011;8603;46.944;7.412;2024-01-30T01:46:20;10.13;;;5.23;;
16973;SDS011;8603;46.944;7.412;2024-01-30T01:48:51;7.23;;;4.80;;
16973;SDS011;8603;46.944;7.412;2024-01-30T01:51:17;8.37;;;5.73;;
16973;SDS011;8603;46.944;7.412;2024-01-30T01:53:42;7.10;;;4.67;;
16973;SDS011;8603;46.944;7.412;2024-01-30T01:56:08;7.93;;;5.60;;
16973;SDS011;8603;46.944;7.412;2024-01-30T01:58:34;7.93;;;5.47;;
16973;SDS011;8603;46.944;7.412;2024-01-30T02:01:02;6.63;;;5.60;;
16973;SDS011;8603;46.944;7.412;2024-01-30T02:03:28;8.40;;;5.33;;
16973;SDS011;8603;46.944;7.412;2024-01-30T02:05:55;8.33;;;5.20;;
16973;SDS011;8603;46.944;7.412;2024-01-30T02:08:21;7.43;;;5.10;;
16973;SDS011;8603;46.944;7.412;2024-01-30T02:10:47;8.33;;;5.50;;
16973;SDS011;8603;46.944;7.412;2024-01-30T02:13:13;7.53;;;5.60;;
16973;SDS011;8603;46.944;7.412;2024-01-30T02:15:39;7.40;;;5.07;;
16973;SDS011;8603;46.944;7.412;2024-01-30T02:18:04;7.50;;;5.27;;
16973;SDS011;8603;46.944;7.412;2024-01-30T02:20:30;9.00;;;5.60;;
16973;SDS011;8603;46.944;7.412;2024-01-30T02:22:59;7.67;;;5.20;;
16973;SDS011;8603;46.944;7.412;2024-01-30T02:25:33;6.57;;;5.33;;
16973;SDS011;8603;46.944;7.412;2024-01-30T02:28:05;11.23;;;5.87;;
16973;SDS011;8603;46.944;7.412;2024-01-30T02:30:30;7.20;;;4.90;;
16973;SDS011;8603;46.944;7.412;2024-01-30T02:33:04;6.60;;;4.40;;
16973;SDS011;8603;46.944;7.412;2024-01-30T02:35:36;6.33;;;5.00;;
16973;SDS011;8603;46.944;7.412;2024-01-30T02:38:05;7.50;;;5.00;;
16973;SDS011;8603;46.944;7.412;2024-01-30T02:40:37;8.80;;;5.03;;
16973;SDS011;8603;46.944;7.412;2024-01-30T02:43:02;6.37;;;4.83;;
16973;SDS011;8603;46.944;7.412;2024-01-30T02:45:33;6.07;;;4.70;;
16973;SDS011;8603;46.944;7.412;2024-01-30T02:48:02;7.37;;;5.07;;
16973;SDS011;8603;46.944;7.412;2024-01-30T02:50:28;6.97;;;5.10;;
16973;SDS011;8603;46.944;7.412;2024-01-30T02:52:53;8.47;;;5.20;;
16973;SDS011;8603;46.944;7.412;2024-01-30T02:55:19;6.40;;;5.07;;
16973;SDS011;8603;46.944;7.412;2024-01-30T02:57:45;8.70;;;5.30;;
16973;SDS011;8603;46.944;7.412;2024-01-30T03:00:11;7.43;;;5.10;;
16973;SDS011;8603;46.944;7.412;2024-01-30T03:02:37;7.30;;;5.00;;
16973;SDS011;8603;46.944;7.412;2024-01-30T03:05:03;8.60;;;5.43;;
16973;SDS011;8603;46.944;7.412;2024-01-30T03:07:29;8.60;;;4.87;;
16973;SDS011;8603;46.944;7.412;2024-01-30T03:09:55;7.93;;;5.33;;
16973;SDS011;8603;46.944;7.412;2024-01-30T03:12:21;8.20;;;4.77;;
16973;SDS011;8603;46.944;7.412;2024-01-30T03:14:47;6.30;;;5.00;;
16973;SDS011;8603;46.944;7.412;2024-01-30T03:17:14;7.30;;;4.97;;
16973;SDS011;8603;46.944;7.412;2024-01-30T03:19:43;8.17;;;5.60;;
16973;SDS011;8603;46.944;7.412;2024-01-30T03:22:08;6.43;;;5.03;;
16973;SDS011;8603;46.944;7.412;2024-01-30T03:24:34;7.17;;;5.37;;
16973;SDS011;8603;46.944;7.412;2024-01-30T03:27:02;8.03;;;5.00;;
16973;SDS011;8603;46.944;7.412;2024-01-30T03:29:27;7.30;;;5.23;;
16973;SDS011;8603;46.944;7.412;2024-01-30T03:31:53;7.63;;;5.13;;
16973;SDS011;8603;46.944;7.412;2024-01-30T03:34:19;8.13;;;4.90;;
16973;SDS011;8603;46.944;7.412;2024-01-30T03:36:45;6.70;;;4.93;;
16973;SDS011;8603;46.944;7.412;2024-01-30T03:39:15;7.47;;;4.73;;
16973;SDS011;8603;46.944;7.412;2024-01-30T03:41:50;7.07;;;4.60;;
16973;SDS011;8603;46.944;7.412;2024-01-30T03:44:18;7.20;;;4.70;;
16973;SDS011;8603;46.944;7.412;2024-01-30T03:46:44;7.23;;;5.13;;
16973;SDS011;8603;46.944;7.412;2024-01-30T03:49:15;6.50;;;4.83;;
16973;SDS011;8603;46.944;7.412;2024-01-30T03:51:40;9.00;;;5.47;;
16973;SDS011;8603;46.944;7.412;2024-01-30T03:54:08;9.53;;;5.20;;
16973;SDS011;8603;46.944;7.412;2024-01-30T03:56:35;6.63;;;5.03;;
16973;SDS011;8603;46.944;7.412;2024-01-30T03:59:00;5.93;;;4.50;;
16973;SDS011;8603;46.944;7.412;2024-01-30T04:01:28;6.30;;;4.60;;
16973;SDS011;8603;46.944;7.412;2024-01-30T04:03:57;6.43;;;4.47;;
16973;SDS011;8603;46.944;7.412;2024-01-30T04:06:22;7.43;;;4.90;;
16973;SDS011;8603;46.944;7.412;2024-01-30T04:08:54;6.13;;;4.30;;
16973;SDS011;8603;46.944;7.412;2024-01-30T04:11:19;6.63;;;4.77;;
16973;SDS011;8603;46.944;7.412;2024-01-30T04:13:50;6.23;;;4.50;;
16973;SDS011;8603;46.944;7.412;2024-01-30T04:16:19;5.90;;;4.33;;
16973;SDS011;8603;46.944;7.412;2024-01-30T04:18:46;5.83;;;4.10;;
16973;SDS011;8603;46.944;7.412;2024-01-30T04:21:18;6.47;;;4.30;;
16973;SDS011;8603;46.944;7.412;2024-01-30T04:23:46;5.50;;;4.47;;
16973;SDS011;8603;46.944;7.412;2024-01-30T04:26:13;7.07;;;4.17;;
16973;SDS011;8603;46.944;7.412;2024-01-30T04:28:42;5.90;;;3.90;;
16973;SDS011;8603;46.944;7.412;2024-01-30T04:31:09;7.03;;;4.70;;
16973;SDS011;8603;46.944;7.412;2024-01-30T04:33:35;5.43;;;3.97;;
16973;SDS011;8603;46.944;7.412;2024-01-30T04:36:01;5.30;;;4.13;;
16973;SDS011;8603;46.944;7.412;2024-01-30T04:38:45;6.23;;;4.63;;
16973;SDS011;8603;46.944;7.412;2024-01-30T04:41:15;5.23;;;4.13;;
16973;SDS011;8603;46.944;7.412;2024-01-30T04:43:47;5.77;;;4.23;;
16973;SDS011;8603;46.944;7.412;2024-01-30T04:46:12;9.73;;;4.63;;
16973;SDS011;8603;46.944;7.412;2024-01-30T04:48:41;7.57;;;4.83;;
16973;SDS011;8603;46.944;7.412;2024-01-30T04:51:16;6.03;;;4.03;;
16973;SDS011;8603;46.944;7.412;2024-01-30T04:53:41;7.87;;;4.60;;
16973;SDS011;8603;46.944;7.412;2024-01-30T04:56:10;6.03;;;4.43;;
16973;SDS011;8603;46.944;7.412;2024-01-30T04:58:36;6.23;;;4.37;;
16973;SDS011;8603;46.944;7.412;2024-01-30T05:01:05;9.50;;;4.70;;
16973;SDS011;8603;46.944;7.412;2024-01-30T05:03:33;8.10;;;4.80;;
16973;SDS011;8603;46.944;7.412;2024-01-30T05:06:02;6.17;;;4.33;;
16973;SDS011;8603;46.944;7.412;2024-01-30T05:08:28;6.43;;;4.47;;
16973;SDS011;8603;46.944;7.412;2024-01-30T05:10:56;6.83;;;4.13;;
16973;SDS011;8603;46.944;7.412;2024-01-30T05:13:38;5.83;;;4.33;;
16973;SDS011;8603;46.944;7.412;2024-01-30T05:16:09;5.53;;;4.47;;
16973;SDS011;8603;46.944;7.412;2024-01-30T05:18:35;6.20;;;4.27;;
16973;SDS011;8603;46.944;7.412;2024-01-30T05:21:01;6.53;;;4.70;;
16973;SDS011;8603;46.944;7.412;2024-01-30T05:23:30;9.87;;;5.17;;
16973;SDS011;8603;46.944;7.412;2024-01-30T05:25:55;6.47;;;4.53;;
16973;SDS011;8603;46.944;7.412;2024-01-30T05:28:21;7.03;;;4.57;;
16973;SDS011;8603;46.944;7.412;2024-01-30T05:30:47;8.60;;;5.03;;
16973;SDS011;8603;46.944;7.412;2024-01-30T05:33:12;6.07;;;4.40;;
16973;SDS011;8603;46.944;7.412;2024-01-30T05:35:38;6.40;;;4.63;;
16973;SDS011;8603;46.944;7.412;2024-01-30T05:38:07;6.97;;;4.90;;
16973;SDS011;8603;46.944;7.412;2024-01-30T05:40:32;5.00;;;4.33;;
16973;SDS011;8603;46.944;7.412;2024-01-30T05:42:58;5.93;;;4.40;;
16973;SDS011;8603;46.944;7.412;2024-01-30T05:45:26;9.07;;;5.00;;
16973;SDS011;8603;46.944;7.412;2024-01-30T05:47:52;7.53;;;4.70;;
16973;SDS011;8603;46.944;7.412;2024-01-30T05:50:18;6.37;;;4.60;;
16973;SDS011;8603;46.944;7.412;2024-01-30T05:52:54;6.73;;;5.17;;
16973;SDS011;8603;46.944;7.412;2024-01-30T05:55:25;6.53;;;4.87;;
16973;SDS011;8603;46.944;7.412;2024-01-30T05:57:54;6.20;;;4.80;;
16973;SDS011;8603;46.944;7.412;2024-01-30T06:00:23;7.97;;;5.23;;
16973;SDS011;8603;46.944;7.412;2024-01-30T06:02:49;8.37;;;4.87;;
16973;SDS011;8603;46.944;7.412;2024-01-30T06:05:15;8.00;;;5.60;;
16973;SDS011;8603;46.944;7.412;2024-01-30T06:07:49;7.10;;;5.03;;
16973;SDS011;8603;46.944;7.412;2024-01-30T06:10:14;6.67;;;4.70;;
16973;SDS011;8603;46.944;7.412;2024-01-30T06:12:40;7.47;;;4.90;;
16973;SDS011;8603;46.944;7.412;2024-01-30T06:15:08;8.60;;;5.00;;
16973;SDS011;8603;46.944;7.412;2024-01-30T06:17:34;6.03;;;4.73;;
16973;SDS011;8603;46.944;7.412;2024-01-30T06:20:00;6.10;;;4.50;;
16973;SDS011;8603;46.944;7.412;2024-01-30T06:22:28;7.07;;;4.83;;
16973;SDS011;8603;46.944;7.412;2024-01-30T06:24:54;6.37;;;4.70;;
16973;SDS011;8603;46.944;7.412;2024-01-30T06:27:20;5.53;;;4.20;;
16973;SDS011;8603;46.944;7.412;2024-01-30T06:29:45;9.23;;;5.27;;
16973;SDS011;8603;46.944;7.412;2024-01-30T06:32:13;7.73;;;5.00;;
16973;SDS011;8603;46.944;7.412;2024-01-30T06:34:40;4.93;;;4.30;;
16973;SDS011;8603;46.944;7.412;2024-01-30T06:37:06;5.37;;;4.27;;
16973;SDS011;8603;46.944;7.412;2024-01-30T06:39:31;5.43;;;4.63;;
16973;SDS011;8603;46.944;7.412;2024-01-30T06:41:57;9.50;;;4.93;;
16973;SDS011;8603;46.944;7.412;2024-01-30T06:44:23;7.80;;;5.20;;
16973;SDS011;8603;46.944;7.412;2024-01-30T06:46:48;7.43;;;5.33;;
16973;SDS011;8603;46.944;7.412;2024-01-30T06:49:14;8.30;;;5.93;;
16973;SDS011;8603;46.944;7.412;2024-01-30T06:51:39;7.63;;;5.27;;
16973;SDS011;8603;46.944;7.412;2024-01-30T06:54:05;6.33;;;5.23;;
16973;SDS011;8603;46.944;7.412;2024-01-30T06:56:33;7.07;;;5.10;;
16973;SDS011;8603;46.944;7.412;2024-01-30T06:58:59;7.63;;;5.00;;
16973;SDS011;8603;46.944;7.412;2024-01-30T07:01:28;7.47;;;5.00;;
16973;SDS011;8603;46.944;7.412;2024-01-30T07:03:54;7.87;;;5.17;;
16973;SDS011;8603;46.944;7.412;2024-01-30T07:06:20;7.10;;;5.37;;
16973;SDS011;8603;46.944;7.412;2024-01-30T07:08:45;8.83;;;5.37;;
16973;SDS011;8603;46.944;7.412;2024-01-30T07:11:17;8.37;;;5.50;;
16973;SDS011;8603;46.944;7.412;2024-01-30T07:13:44;7.57;;;5.33;;
16973;SDS011;8603;46.944;7.412;2024-01-30T07:16:09;8.23;;;5.83;;
16973;SDS011;8603;46.944;7.412;2024-01-30T07:18:35;7.90;;;5.43;;
16973;SDS011;8603;46.944;7.412;2024-01-30T07:21:00;11.00;;;5.93;;
16973;SDS011;8603;46.944;7.412;2024-01-30T07:23:26;6.73;;;5.03;;
16973;SDS011;8603;46.944;7.412;2024-01-30T07:25:52;7.27;;;5.47;;
16973;SDS011;8603;46.944;7.412;2024-01-30T07:28:17;6.20;;;4.83;;
16973;SDS011;8603;46.944;7.412;2024-01-30T07:30:46;6.50;;;5.53;;
16973;SDS011;8603;46.944;7.412;2024-01-30T07:33:13;7.83;;;5.30;;
16973;SDS011;8603;46.944;7.412;2024-01-30T07:35:41;8.80;;;5.20;;
16973;SDS011;8603;46.944;7.412;2024-01-30T07:38:09;8.73;;;5.47;;
16973;SDS011;8603;46.944;7.412;2024-01-30T07:40:34;9.30;;;5.70;;
16973;SDS011;8603;46.944;7.412;2024-01-30T07:43:00;8.17;;;5.60;;
16973;SDS011;8603;46.944;7.412;2024-01-30T07:45:29;8.63;;;6.03;;
16973;SDS011;8603;46.944;7.412;2024-01-30T07:47:58;8.47;;;5.67;;
16973;SDS011;8603;46.944;7.412;2024-01-30T07:50:24;7.40;;;5.47;;
16973;SDS011;8603;46.944;7.412;2024-01-30T07:52:52;7.00;;;5.70;;
16973;SDS011;8603;46.944;7.412;2024-01-30T07:55:23;9.70;;;6.13;;
16973;SDS011;8603;46.944;7.412;2024-01-30T07:57:53;9.67;;;6.87;;
16973;SDS011;8603;46.944;7.412;2024-01-30T08:00:22;9.10;;;7.37;;
16973;SDS011;8603;46.944;7.412;2024-01-30T08:02:47;11.03;;;7.50;;
16973;SDS011;8603;46.944;7.412;2024-01-30T08:05:13;12.17;;;7.80;;
16973;SDS011;8603;46.944;7.412;2024-01-30T08:07:44;10.23;;;7.93;;
16973;SDS011;8603;46.944;7.412;2024-01-30T08:10:13;10.50;;;8.00;;
16973;SDS011;8603;46.944;7.412;2024-01-30T08:12:43;8.27;;;6.53;;
16973;SDS011;8603;46.944;7.412;2024-01-30T08:15:11;8.27;;;6.20;;
16973;SDS011;8603;46.944;7.412;2024-01-30T08:17:38;8.33;;;6.10;;
16973;SDS011;8603;46.944;7.412;2024-01-30T08:20:07;7.47;;;6.17;;
16973;SDS011;8603;46.944;7.412;2024-01-30T08:22:40;12.40;;;11.17;;
16973;SDS011;8603;46.944;7.412;2024-01-30T08:25:06;21.30;;;15.30;;
16973;SDS011;8603;46.944;7.412;2024-01-30T08:27:32;9.83;;;7.57;;
16973;SDS011;8603;46.944;7.412;2024-01-30T08:29:57;5.53;;;4.83;;
16973;SDS011;8603;46.944;7.412;2024-01-30T08:32:23;4.43;;;4.03;;
16973;SDS011;8603;46.944;7.412;2024-01-30T08:34:51;6.10;;;4.20;;
16973;SDS011;8603;46.944;7.412;2024-01-30T08:37:17;7.00;;;4.90;;
16973;SDS011;8603;46.944;7.412;2024-01-30T08:39:43;7.50;;;4.83;;
16973;SDS011;8603;46.944;7.412;2024-01-30T08:42:09;8.77;;;6.10;;
16973;SDS011;8603;46.944;7.412;2024-01-30T08:44:35;7.83;;;5.37;;
16973;SDS011;8603;46.944;7.412;2024-01-30T08:47:04;5.93;;;4.40;;
16973;SDS011;8603;46.944;7.412;2024-01-30T08:49:30;7.17;;;4.73;;
16973;SDS011;8603;46.944;7.412;2024-01-30T08:51:56;7.10;;;4.60;;
16973;SDS011;8603;46.944;7.412;2024-01-30T08:54:22;5.47;;;3.63;;
16973;SDS011;8603;46.944;7.412;2024-01-30T08:56:48;4.97;;;3.70;;
16973;SDS011;8603;46.944;7.412;2024-01-30T08:59:14;4.27;;;3.27;;
16973;SDS011;8603;46.944;7.412;2024-01-30T09:01:40;3.67;;;2.97;;
16973;SDS011;8603;46.944;7.412;2024-01-30T09:04:05;4.40;;;3.50;;
16973;SDS011;8603;46.944;7.412;2024-01-30T09:06:31;5.57;;;3.27;;
16973;SDS011;8603;46.944;7.412;2024-01-30T09:08:57;5.40;;;3.20;;
16973;SDS011;8603;46.944;7.412;2024-01-30T09:11:23;5.00;;;3.53;;
16973;SDS011;8603;46.944;7.412;2024-01-30T09:13:48;4.83;;;3.47;;
16973;SDS011;8603;46.944;7.412;2024-01-30T09:16:14;8.13;;;4.27;;
16973;SDS011;8603;46.944;7.412;2024-01-30T09:18:41;4.73;;;3.47;;
16973;SDS011;8603;46.944;7.412;2024-01-30T09:21:07;6.20;;;4.07;;
16973;SDS011;8603;46.944;7.412;2024-01-30T09:23:32;4.37;;;3.20;;
16973;SDS011;8603;46.944;7.412;2024-01-30T09:25:58;3.90;;;3.10;;
16973;SDS011;8603;46.944;7.412;2024-01-30T09:28:24;3.93;;;3.30;;
16973;SDS011;8603;46.944;7.412;2024-01-30T09:30:50;4.63;;;3.47;;
16973;SDS011;8603;46.944;7.412;2024-01-30T09:33:15;4.70;;;3.13;;
16973;SDS011;8603;46.944;7.412;2024-01-30T09:35:41;4.67;;;3.37;;
16973;SDS011;8603;46.944;7.412;2024-01-30T09:38:07;5.37;;;3.73;;
16973;SDS011;8603;46.944;7.412;2024-01-30T09:40:32;6.37;;;4.03;;
16973;SDS011;8603;46.944;7.412;2024-01-30T09:43:03;5.00;;;3.40;;
16973;SDS011;8603;46.944;7.412;2024-01-30T09:45:29;4.10;;;3.57;;
16973;SDS011;8603;46.944;7.412;2024-01-30T09:47:58;6.17;;;4.10;;
16973;SDS011;8603;46.944;7.412;2024-01-30T09:50:27;9.80;;;7.20;;
16973;SDS011;8603;46.944;7.412;2024-01-30T09:52:53;8.53;;;6.67;;
16973;SDS011;8603;46.944;7.412;2024-01-30T09:55:20;5.93;;;4.40;;
16973;SDS011;8603;46.944;7.412;2024-01-30T09:57:46;5.77;;;4.37;;
16973;SDS011;8603;46.944;7.412;2024-01-30T10:00:15;5.40;;;3.80;;
16973;SDS011;8603;46.944;7.412;2024-01-30T10:02:41;5.50;;;3.80;;
16973;SDS011;8603;46.944;7.412;2024-01-30T10:05:08;10.57;;;5.53;;
16973;SDS011;8603;46.944;7.412;2024-01-30T10:07:34;7.37;;;5.47;;
16973;SDS011;8603;46.944;7.412;2024-01-30T10:10:00;9.13;;;5.17;;
16973;SDS011;8603;46.944;7.412;2024-01-30T10:12:28;7.57;;;5.20;;
16973;SDS011;8603;46.944;7.412;2024-01-30T10:14:55;7.13;;;4.63;;
16973;SDS011;8603;46.944;7.412;2024-01-30T10:17:21;6.40;;;4.07;;
16973;SDS011;8603;46.944;7.412;2024-01-30T10:19:50;5.83;;;3.70;;
16973;SDS011;8603;46.944;7.412;2024-01-30T10:22:16;7.90;;;4.60;;
16973;SDS011;8603;46.944;7.412;2024-01-30T10:24:42;7.10;;;4.07;;
16973;SDS011;8603;46.944;7.412;2024-01-30T10:27:10;5.90;;;4.00;;
16973;SDS011;8603;46.944;7.412;2024-01-30T10:29:36;10.27;;;4.53;;
16973;SDS011;8603;46.944;7.412;2024-01-30T10:32:02;5.20;;;3.63;;
16973;SDS011;8603;46.944;7.412;2024-01-30T10:34:29;5.87;;;4.47;;
16973;SDS011;8603;46.944;7.412;2024-01-30T10:36:59;6.77;;;4.10;;
16973;SDS011;8603;46.944;7.412;2024-01-30T10:39:39;6.30;;;4.30;;
16973;SDS011;8603;46.944;7.412;2024-01-30T10:42:07;4.90;;;3.80;;
16973;SDS011;8603;46.944;7.412;2024-01-30T10:44:44;6.03;;;4.07;;
16973;SDS011;8603;46.944;7.412;2024-01-30T10:47:30;5.50;;;4.20;;
16973;SDS011;8603;46.944;7.412;2024-01-30T10:49:56;5.03;;;4.07;;
16973;SDS011;8603;46.944;7.412;2024-01-30T10:52:22;6.77;;;4.13;;
16973;SDS011;8603;46.944;7.412;2024-01-30T10:54:53;6.07;;;3.97;;
16973;SDS011;8603;46.944;7.412;2024-01-30T10:57:19;6.50;;;3.80;;
16973;SDS011;8603;46.944;7.412;2024-01-30T10:59:48;5.60;;;4.10;;
16973;SDS011;8603;46.944;7.412;2024-01-30T11:02:16;5.57;;;3.87;;
16973;SDS011;8603;46.944;7.412;2024-01-30T11:04:42;5.37;;;4.03;;
16973;SDS011;8603;46.944;7.412;2024-01-30T11:07:17;7.13;;;4.33;;
16973;SDS011;8603;46.944;7.412;2024-01-30T11:12:22;7.07;;;4.40;;
16973;SDS011;8603;46.944;7.412;2024-01-30T11:15:01;5.77;;;4.63;;
16973;SDS011;8603;46.944;7.412;2024-01-30T11:17:39;9.80;;;4.40;;
16973;SDS011;8603;46.944;7.412;2024-01-30T11:20:11;6.10;;;4.17;;
16973;SDS011;8603;46.944;7.412;2024-01-30T11:22:42;8.83;;;4.97;;
16973;SDS011;8603;46.944;7.412;2024-01-30T11:25:16;6.07;;;4.90;;
16973;SDS011;8603;46.944;7.412;2024-01-30T11:27:43;6.83;;;4.73;;
16973;SDS011;8603;46.944;7.412;2024-01-30T11:30:09;7.80;;;4.73;;
16973;SDS011;8603;46.944;7.412;2024-01-30T11:32:36;6.17;;;4.90;;
16973;SDS011;8603;46.944;7.412;2024-01-30T11:35:05;6.47;;;4.70;;
16973;SDS011;8603;46.944;7.412;2024-01-30T11:37:31;6.03;;;4.40;;
16973;SDS011;8603;46.944;7.412;2024-01-30T11:39:57;7.20;;;4.63;;
16973;SDS011;8603;46.944;7.412;2024-01-30T11:42:23;9.13;;;5.07;;
16973;SDS011;8603;46.944;7.412;2024-01-30T11:44:53;6.70;;;4.93;;
16973;SDS011;8603;46.944;7.412;2024-01-30T11:47:19;7.17;;;5.13;;
16973;SDS011;8603;46.944;7.412;2024-01-30T11:49:44;7.47;;;4.87;;
16973;SDS011;8603;46.944;7.412;2024-01-30T11:52:10;14.80;;;9.57;;
16973;SDS011;8603;46.944;7.412;2024-01-30T11:54:36;6.83;;;4.57;;
16973;SDS011;8603;46.944;7.412;2024-01-30T11:57:04;6.53;;;4.07;;
16973;SDS011;8603;46.944;7.412;2024-01-30T11:59:30;5.80;;;4.43;;
16973;SDS011;8603;46.944;7.412;2024-01-30T12:01:56;5.20;;;3.80;;
16973;SDS011;8603;46.944;7.412;2024-01-30T12:04:21;6.17;;;4.03;;
16973;SDS011;8603;46.944;7.412;2024-01-30T12:06:50;16.17;;;9.47;;
16973;SDS011;8603;46.944;7.412;2024-01-30T12:09:16;6.20;;;4.60;;
16973;SDS011;8603;46.944;7.412;2024-01-30T12:14:12;6.73;;;4.33;;
16973;SDS011;8603;46.944;7.412;2024-01-30T12:16:38;4.10;;;3.70;;
16973;SDS011;8603;46.944;7.412;2024-01-30T12:19:04;6.97;;;3.97;;
16973;SDS011;8603;46.944;7.412;2024-01-30T12:21:29;5.73;;;4.33;;
16973;SDS011;8603;46.944;7.412;2024-01-30T12:23:59;5.70;;;4.40;;
16973;SDS011;8603;46.944;7.412;2024-01-30T12:26:25;10.07;;;5.37;;
16973;SDS011;8603;46.944;7.412;2024-01-30T12:28:53;7.17;;;5.00;;
16973;SDS011;8603;46.944;7.412;2024-01-30T12:31:25;7.33;;;5.07;;
16973;SDS011;8603;46.944;7.412;2024-01-30T12:33:53;7.43;;;4.80;;
16973;SDS011;8603;46.944;7.412;2024-01-30T12:36:20;6.80;;;4.87;;
16973;SDS011;8603;46.944;7.412;2024-01-30T12:38:47;8.30;;;4.60;;
16973;SDS011;8603;46.944;7.412;2024-01-30T12:41:12;7.40;;;4.93;;
16973;SDS011;8603;46.944;7.412;2024-01-30T12:43:39;7.57;;;4.90;;
16973;SDS011;8603;46.944;7.412;2024-01-30T12:46:05;9.67;;;5.30;;
16973;SDS011;8603;46.944;7.412;2024-01-30T12:48:30;7.23;;;5.37;;
16973;SDS011;8603;46.944;7.412;2024-01-30T12:50:56;6.77;;;4.33;;
16973;SDS011;8603;46.944;7.412;2024-01-30T12:53:22;6.93;;;5.30;;
16973;SDS011;8603;46.944;7.412;2024-01-30T12:55:48;6.53;;;5.00;;
16973;SDS011;8603;46.944;7.412;2024-01-30T12:58:15;7.40;;;5.13;;
16973;SDS011;8603;46.944;7.412;2024-01-30T13:00:40;6.80;;;4.70;;
16973;SDS011;8603;46.944;7.412;2024-01-30T13:03:08;5.27;;;4.77;;
16973;SDS011;8603;46.944;7.412;2024-01-30T13:05:34;7.33;;;5.07;;
16973;SDS011;8603;46.944;7.412;2024-01-30T13:08:00;8.97;;;4.73;;
16973;SDS011;8603;46.944;7.412;2024-01-30T13:10:26;5.30;;;4.53;;
16973;SDS011;8603;46.944;7.412;2024-01-30T13:12:52;11.93;;;5.23;;
16973;SDS011;8603;46.944;7.412;2024-01-30T13:15:18;6.60;;;4.67;;
16973;SDS011;8603;46.944;7.412;2024-01-30T13:17:43;7.87;;;4.60;;
16973;SDS011;8603;46.944;7.412;2024-01-30T13:20:12;8.37;;;5.07;;
16973;SDS011;8603;46.944;7.412;2024-01-30T13:22:41;6.87;;;5.07;;
16973;SDS011;8603;46.944;7.412;2024-01-30T13:25:08;7.07;;;4.70;;
16973;SDS011;8603;46.944;7.412;2024-01-30T13:27:33;9.30;;;5.00;;
16973;SDS011;8603;46.944;7.412;2024-01-30T13:29:59;5.53;;;4.03;;
16973;SDS011;8603;46.944;7.412;2024-01-30T13:32:25;5.90;;;4.40;;
16973;SDS011;8603;46.944;7.412;2024-01-30T13:34:51;7.33;;;4.10;;
16973;SDS011;8603;46.944;7.412;2024-01-30T13:37:16;6.37;;;4.53;;
16973;SDS011;8603;46.944;7.412;2024-01-30T13:39:42;5.90;;;4.47;;
16973;SDS011;8603;46.944;7.412;2024-01-30T13:42:07;6.80;;;4.50;;
16973;SDS011;8603;46.944;7.412;2024-01-30T13:44:34;7.47;;;4.60;;
16973;SDS011;8603;46.944;7.412;2024-01-30T13:47:00;7.33;;;4.37;;
16973;SDS011;8603;46.944;7.412;2024-01-30T13:49:26;7.33;;;4.87;;
16973;SDS011;8603;46.944;7.412;2024-01-30T13:51:52;6.70;;;4.33;;
16973;SDS011;8603;46.944;7.412;2024-01-30T13:54:17;7.27;;;4.30;;
16973;SDS011;8603;46.944;7.412;2024-01-30T13:56:43;7.97;;;4.70;;
16973;SDS011;8603;46.944;7.412;2024-01-30T13:59:08;9.03;;;5.07;;
16973;SDS011;8603;46.944;7.412;2024-01-30T14:01:34;9.30;;;5.00;;
16973;SDS011;8603;46.944;7.412;2024-01-30T14:03:59;6.63;;;5.20;;
16973;SDS011;8603;46.944;7.412;2024-01-30T14:06:25;8.13;;;4.93;;
16973;SDS011;8603;46.944;7.412;2024-01-30T14:08:51;9.10;;;4.73;;
16973;SDS011;8603;46.944;7.412;2024-01-30T14:11:16;7.37;;;5.20;;
16973;SDS011;8603;46.944;7.412;2024-01-30T14:13:42;7.33;;;5.20;;
16973;SDS011;8603;46.944;7.412;2024-01-30T14:16:07;8.57;;;6.17;;
16973;SDS011;8603;46.944;7.412;2024-01-30T14:18:33;8.30;;;5.47;;
16973;SDS011;8603;46.944;7.412;2024-01-30T14:20:59;6.13;;;5.07;;
16973;SDS011;8603;46.944;7.412;2024-01-30T14:23:24;8.10;;;5.63;;
16973;SDS011;8603;46.944;7.412;2024-01-30T14:25:50;7.40;;;5.57;;
16973;SDS011;8603;46.944;7.412;2024-01-30T14:28:16;8.57;;;5.93;;
16973;SDS011;8603;46.944;7.412;2024-01-30T14:30:42;7.83;;;5.77;;
16973;SDS011;8603;46.944;7.412;2024-01-30T14:33:07;6.73;;;5.50;;
16973;SDS011;8603;46.944;7.412;2024-01-30T14:35:33;6.63;;;5.43;;
16973;SDS011;8603;46.944;7.412;2024-01-30T14:37:59;7.97;;;5.37;;
16973;SDS011;8603;46.944;7.412;2024-01-30T14:40:24;8.40;;;6.10;;
16973;SDS011;8603;46.944;7.412;2024-01-30T14:42:50;8.50;;;5.70;;
16973;SDS011;8603;46.944;7.412;2024-01-30T14:45:16;9.43;;;5.73;;
16973;SDS011;8603;46.944;7.412;2024-01-30T14:47:44;9.30;;;6.67;;
16973;SDS011;8603;46.944;7.412;2024-01-30T14:50:10;7.93;;;6.00;;
16973;SDS011;8603;46.944;7.412;2024-01-30T14:52:36;9.97;;;6.80;;
16973;SDS011;8603;46.944;7.412;2024-01-30T14:55:04;7.37;;;5.93;;
16973;SDS011;8603;46.944;7.412;2024-01-30T14:57:30;8.23;;;6.10;;
16973;SDS011;8603;46.944;7.412;2024-01-30T14:59:56;11.67;;;6.93;;
16973;SDS011;8603;46.944;7.412;2024-01-30T15:02:21;10.00;;;7.53;;
16973;SDS011;8603;46.944;7.412;2024-01-30T15:04:47;8.83;;;6.97;;